Time;durP1;ratioP1;P1;durP2;ratioP2;P2;SDS_P1;SDS_P2;PMS_P1;PMS_P2;Temp;Humidity;BMP_temperature;BMP_pressure;BME280_temperature;BME280_humidity;BME280_pressure;Samples;Min_cycle;Max_cycle;Signal;HPM_P1;HPM_P2
2022/05/17 00:00:48;;;;;;;10.30;5.25;;;;;;;15.47;74.21;95123.06;5053276;28;20240;-78
2022/05/17 00:03:15;;;;;;;14.10;6.50;;;;;;;15.46;74.16;95125.94;5043941;28;20646;-78
2022/05/17 00:05:41;;;;;;;20.13;6.90;;;;;;;15.31;74.33;95105.19;5047408;28;20172;-77
2022/05/17 00:08:07;;;;;;;17.48;7.28;;;;;;;15.34;74.00;95110.03;5046557;28;20199;-78
2022/05/17 00:10:33;;;;;;;23.10;7.90;;;;;;;15.26;73.55;95102.44;5042678;28;20233;-78
2022/05/17 00:12:58;;;;;;;16.77;6.53;;;;;;;15.38;73.84;95118.34;5044859;28;20216;-78
2022/05/17 00:15:24;;;;;;;20.92;8.63;;;;;;;15.31;73.58;95115.81;5051688;28;20292;-78
2022/05/17 00:17:51;;;;;;;17.33;9.70;;;;;;;15.37;73.33;95125.50;5049343;28;20167;-77
2022/05/17 00:20:16;;;;;;;29.60;12.43;;;;;;;15.13;72.96;95088.66;5040732;28;20178;-77
2022/05/17 00:22:43;;;;;;;19.52;10.90;;;;;;;15.27;73.26;95121.81;5052504;28;20171;-78
2022/05/17 00:25:10;;;;;;;34.92;12.68;;;;;;;15.28;73.40;95121.59;5047606;28;20236;-77
2022/05/17 00:27:36;;;;;;;25.83;11.13;;;;;;;15.17;73.54;95111.81;5023198;28;20183;-78
2022/05/17 00:30:02;;;;;;;19.92;10.52;;;;;;;15.17;73.52;95109.16;5051754;28;20170;-78
2022/05/17 00:32:28;;;;;;;24.63;10.98;;;;;;;15.21;73.38;95123.56;5054346;28;20278;-78
2022/05/17 00:34:54;;;;;;;22.85;9.95;;;;;;;15.17;72.65;95118.94;5053760;28;20167;-78
2022/05/17 00:37:20;;;;;;;20.88;10.45;;;;;;;15.03;73.16;95094.53;5052813;28;20562;-78
2022/05/17 00:39:45;;;;;;;18.53;9.83;;;;;;;14.91;73.08;95088.44;5052584;28;20221;-78
2022/05/17 00:42:11;;;;;;;20.42;8.82;;;;;;;15.17;73.08;95124.25;5052900;28;20201;-78
2022/05/17 00:44:42;;;;;;;15.30;8.20;;;;;;;14.98;72.84;95091.75;5052692;28;20167;-78
2022/05/17 00:47:20;;;;;;;15.27;8.65;;;;;;;15.16;72.45;95127.94;5040546;28;20187;-78
2022/05/17 00:49:48;;;;;;;15.65;7.93;;;;;;;15.12;72.76;95119.66;5052066;28;20171;-78
2022/05/17 00:52:21;;;;;;;23.73;8.45;;;;;;;15.08;72.90;95110.53;5052622;28;20207;-78
2022/05/17 00:54:47;;;;;;;21.02;9.15;;;;;;;15.06;73.00;95115.25;5052376;28;20163;-78
2022/05/17 00:57:31;;;;;;;14.45;7.40;;;;;;;15.05;72.92;95113.66;5051133;28;20186;-77
2022/05/17 01:00:01;;;;;;;12.00;7.00;;;;;;;15.05;72.79;95122.41;5052298;28;20167;-78
2022/05/17 01:02:28;;;;;;;13.70;7.32;;;;;;;15.03;73.24;95111.25;5052384;28;20182;-78
2022/05/17 01:04:54;;;;;;;17.25;7.78;;;;;;;14.95;72.91;95094.91;5052253;28;20171;-78
2022/05/17 01:07:25;;;;;;;20.80;9.82;;;;;;;14.98;73.47;95110.31;5052242;28;20201;-78
2022/05/17 01:09:51;;;;;;;16.77;9.18;;;;;;;14.80;73.64;95082.09;5052539;28;20186;-78
2022/05/17 01:12:16;;;;;;;19.67;10.40;;;;;;;14.76;73.71;95086.25;5052365;28;20175;-78
2022/05/17 01:14:57;;;;;;;19.87;10.73;;;;;;;14.82;74.38;95103.06;5052128;28;20230;-77
2022/05/17 01:17:25;;;;;;;17.27;10.03;;;;;;;14.84;74.17;95108.94;5052052;28;20642;-78
2022/05/17 01:19:50;;;;;;;19.50;10.67;;;;;;;14.80;74.54;95099.81;5052103;28;20262;-78
2022/05/17 01:22:17;;;;;;;17.47;9.83;;;;;;;14.59;74.79;95074.72;5052563;28;20729;-77
2022/05/17 01:24:43;;;;;;;17.33;9.05;;;;;;;14.70;74.89;95100.44;5052049;28;20245;-78
2022/05/17 01:27:14;;;;;;;14.40;8.47;;;;;;;14.64;75.16;95096.03;5051402;28;20670;-78
2022/05/17 01:29:42;;;;;;;18.80;7.95;;;;;;;14.59;74.89;95085.31;5051629;28;20206;-77
2022/05/17 01:32:10;;;;;;;18.83;7.77;;;;;;;14.53;75.54;95094.97;5051267;28;20193;-77
2022/05/17 01:34:36;;;;;;;12.47;6.93;;;;;;;14.39;75.26;95082.19;5051334;28;20171;-77
2022/05/17 01:37:04;;;;;;;15.17;6.50;;;;;;;14.46;74.87;95099.59;5051796;28;20186;-77
2022/05/17 01:39:30;;;;;;;12.73;6.13;;;;;;;14.46;75.14;95099.59;5044135;28;20199;-77
2022/05/17 01:41:56;;;;;;;12.30;5.43;;;;;;;14.38;75.48;95094.59;5051781;28;20167;-78
2022/05/17 01:44:23;;;;;;;12.47;4.90;;;;;;;14.25;75.39;95082.38;5051559;28;20638;-77
2022/05/17 01:46:48;;;;;;;10.50;6.13;;;;;;;14.25;75.89;95089.50;5051988;28;20440;-77
2022/05/17 01:49:14;;;;;;;12.23;5.97;;;;;;;14.26;76.36;95099.06;5043850;28;20254;-77
2022/05/17 01:51:39;;;;;;;7.97;5.43;;;;;;;14.08;75.99;95077.97;5040414;28;20175;-77
2022/05/17 01:54:05;;;;;;;9.20;5.10;;;;;;;14.07;76.20;95082.44;5043579;28;20258;-77
2022/05/17 01:56:30;;;;;;;10.03;5.33;;;;;;;14.10;76.29;95087.28;5040554;28;20546;-77
2022/05/17 01:58:56;;;;;;;12.03;5.83;;;;;;;14.14;76.30;95103.53;5042613;28;20221;-77
2022/05/17 02:01:21;;;;;;;13.37;5.57;;;;;;;13.99;76.60;95082.78;5037621;28;20613;-77
2022/05/17 02:03:47;;;;;;;11.13;5.27;;;;;;;14.01;76.80;95088.63;5051525;28;20224;-77
2022/05/17 02:06:12;;;;;;;13.00;5.03;;;;;;;14.13;76.84;95101.91;5051221;28;20174;-77
2022/05/17 02:08:38;;;;;;;7.27;5.00;;;;;;;14.11;76.93;95099.47;5038220;28;20175;-77
2022/05/17 02:11:06;;;;;;;8.93;5.57;;;;;;;14.02;77.03;95089.44;5040370;28;20640;-77
2022/05/17 02:13:32;;;;;;;9.00;5.73;;;;;;;14.11;76.66;95103.97;5043716;28;20674;-77
2022/05/17 02:15:57;;;;;;;8.43;5.07;;;;;;;14.10;76.51;95105.00;5051343;28;20163;-77
2022/05/17 02:18:23;;;;;;;7.83;4.83;;;;;;;13.95;77.00;95086.91;5051070;28;20171;-77
2022/05/17 02:20:49;;;;;;;11.17;5.30;;;;;;;13.84;77.30;95082.38;5051053;28;20179;-77
2022/05/17 02:23:14;;;;;;;10.77;4.90;;;;;;;13.96;77.56;95123.72;5051193;28;20178;-77
2022/05/17 02:25:40;;;;;;;8.30;4.73;;;;;;;13.92;77.77;95116.47;5050837;28;20175;-77
2022/05/17 02:28:10;;;;;;;8.27;4.73;;;;;;;13.87;77.95;95117.13;5050817;28;20325;-77
2022/05/17 02:30:36;;;;;;;7.47;5.83;;;;;;;13.78;78.07;95102.59;5039563;28;20198;-77
2022/05/17 02:33:03;;;;;;;8.97;5.23;;;;;;;13.75;77.93;95097.75;5049934;28;20168;-77
2022/05/17 02:35:28;;;;;;;5.90;4.67;;;;;;;13.81;77.86;95112.75;5051014;28;20332;-77
2022/05/17 02:37:54;;;;;;;11.90;5.60;;;;;;;13.69;78.26;95100.50;5050747;28;20254;-77
2022/05/17 02:40:19;;;;;;;7.53;5.20;;;;;;;13.73;78.06;95107.78;5053858;28;20532;-77
2022/05/17 02:42:45;;;;;;;8.40;5.13;;;;;;;13.70;78.42;95107.41;5055061;28;20221;-77
2022/05/17 02:45:11;;;;;;;9.47;6.33;;;;;;;13.51;78.48;95085.47;5046399;28;20658;-77
2022/05/17 02:47:36;;;;;;;8.30;5.27;;;;;;;13.67;78.58;95105.19;5045238;28;20196;-77
2022/05/17 02:50:02;;;;;;;7.47;5.63;;;;;;;13.62;78.88;95107.72;5042763;28;20188;-76
2022/05/17 02:52:28;;;;;;;8.40;5.70;;;;;;;13.59;78.97;95107.13;5045304;28;20705;-76
2022/05/17 02:54:53;;;;;;;11.63;6.03;;;;;;;13.57;79.06;95111.84;5029841;28;20203;-76
2022/05/17 02:57:19;;;;;;;9.00;5.53;;;;;;;13.50;78.82;95094.41;5054238;28;20634;-76
2022/05/17 02:59:44;;;;;;;8.23;6.00;;;;;;;13.57;79.16;95111.03;5054669;28;20217;-76
2022/05/17 03:02:10;;;;;;;9.87;5.90;;;;;;;13.58;78.79;95108.16;5036579;28;20175;-76
2022/05/17 03:04:35;;;;;;;9.37;6.00;;;;;;;13.47;78.75;95089.59;5054429;28;20267;-76
2022/05/17 03:07:01;;;;;;;10.93;6.00;;;;;;;13.49;78.50;95088.31;5054637;28;20665;-76
2022/05/17 03:09:26;;;;;;;11.90;5.90;;;;;;;13.38;78.52;95083.00;5045321;28;20182;-76
2022/05/17 03:11:52;;;;;;;17.27;8.30;;;;;;;13.58;78.77;95104.69;5039989;28;20184;-76
2022/05/17 03:14:18;;;;;;;27.37;7.20;;;;;;;13.47;79.15;95105.47;5039115;28;20211;-76
2022/05/17 03:16:44;;;;;;;17.07;5.97;;;;;;;13.50;79.20;95105.81;5043127;28;20179;-76
2022/05/17 03:19:10;;;;;;;12.40;6.63;;;;;;;13.47;78.71;95100.97;5048228;28;20586;-76
2022/05/17 03:21:35;;;;;;;20.00;7.37;;;;;;;13.38;78.71;95086.44;5040267;28;20174;-76
2022/05/17 03:24:01;;;;;;;14.40;6.20;;;;;;;13.40;78.27;95080.94;5042899;28;20176;-76
2022/05/17 03:26:28;;;;;;;10.27;6.23;;;;;;;13.53;78.91;95113.31;5045102;28;20175;-76
2022/05/17 03:28:56;;;;;;;14.20;6.23;;;;;;;13.53;78.89;95102.72;5052852;28;20225;-76
2022/05/17 03:31:22;;;;;;;20.73;7.03;;;;;;;13.55;78.88;95099.88;5053960;28;20566;-76
2022/05/17 03:33:47;;;;;;;10.90;6.20;;;;;;;13.66;78.62;95114.19;5053556;28;20174;-76
2022/05/17 03:36:13;;;;;;;14.03;6.80;;;;;;;13.46;78.74;95077.41;5052655;28;20179;-77
2022/05/17 03:38:39;;;;;;;11.03;6.67;;;;;;;13.58;78.64;95100.22;5053743;28;20182;-77
2022/05/17 03:41:04;;;;;;;16.80;6.87;;;;;;;13.75;78.95;95118.91;5053629;28;20647;-77
2022/05/17 03:43:30;;;;;;;9.60;6.07;;;;;;;13.83;79.18;95123.94;5028376;28;20176;-77
2022/05/17 03:45:57;;;;;;;11.37;6.90;;;;;;;14.00;78.82;95118.00;5041280;28;20186;-77
2022/05/17 03:48:25;;;;;;;9.33;6.10;;;;;;;14.05;78.09;95116.28;5053637;28;20654;-77
2022/05/17 03:50:51;;;;;;;19.00;8.07;;;;;;;14.16;78.26;95122.66;5053520;28;20274;-78
2022/05/17 03:53:16;;;;;;;13.00;6.63;;;;;;;14.12;77.47;95102.94;5052301;28;20680;-78
2022/05/17 03:55:42;;;;;;;25.13;8.33;;;;;;;14.41;76.50;95127.81;5043655;28;20662;-78
2022/05/17 03:58:08;;;;;;;18.60;8.63;;;;;;;14.38;76.09;95102.53;5044723;28;20187;-77
2022/05/17 04:00:34;;;;;;;29.80;9.80;;;;;;;14.65;75.59;95127.59;5048470;28;20190;-77
2022/05/17 04:03:00;;;;;;;20.70;9.27;;;;;;;14.81;74.97;95120.00;5052128;28;20179;-77
2022/05/17 04:05:26;;;;;;;29.92;9.07;;;;;;;14.93;75.50;95121.63;5052143;28;20172;-77
2022/05/17 04:07:51;;;;;;;22.58;8.75;;;;;;;15.10;74.85;95119.88;5052282;28;20201;-77
2022/05/17 04:10:17;;;;;;;12.53;7.60;;;;;;;15.25;74.17;95121.25;5043074;28;20205;-77
2022/05/17 04:12:44;;;;;;;11.75;7.15;;;;;;;15.29;72.27;95095.88;5053185;28;20179;-77
2022/05/17 04:15:13;;;;;;;13.55;6.10;;;;;;;15.44;71.89;95099.66;5052866;28;20175;-77
2022/05/17 04:17:39;;;;;;;12.35;6.43;;;;;;;15.71;71.56;95099.94;5051953;28;20203;-77
2022/05/17 04:20:05;;;;;;;14.82;6.57;;;;;;;16.02;71.08;95127.88;5053244;28;20284;-77
2022/05/17 04:22:30;;;;;;;11.93;5.85;;;;;;;16.05;70.68;95106.16;5051693;28;20186;-77
2022/05/17 04:24:57;;;;;;;17.45;8.32;;;;;;;16.41;68.52;95131.50;5055629;28;20175;-77
2022/05/17 04:27:23;;;;;;;20.33;6.50;;;;;;;16.47;69.43;95105.81;5051869;28;20245;-77
2022/05/17 04:29:49;;;;;;;11.75;6.00;;;;;;;16.97;66.90;95153.69;5055051;28;20688;-78
2022/05/17 04:32:15;;;;;;;14.02;5.65;;;;;;;17.28;66.94;95157.59;5036764;28;20183;-78
2022/05/17 04:34:41;;;;;;;13.90;6.60;;;;;;;17.61;66.05;95162.84;5051936;28;20609;-77
2022/05/17 04:37:07;;;;;;;14.50;7.65;;;;;;;17.78;65.35;95136.19;5051616;28;20174;-77
2022/05/17 04:39:33;;;;;;;19.38;7.38;;;;;;;18.15;64.52;95136.34;5046868;28;20179;-78
2022/05/17 04:41:59;;;;;;;21.17;6.80;;;;;;;18.60;62.56;95162.66;5050918;28;20183;-78
2022/05/17 04:44:25;;;;;;;15.10;6.72;;;;;;;18.98;60.65;95156.31;5052160;28;20915;-78
2022/05/17 04:46:51;;;;;;;15.32;6.13;;;;;;;19.31;59.34;95151.72;5052262;28;20273;-77
2022/05/17 04:49:16;;;;;;;14.90;5.95;;;;;;;19.53;57.21;95136.41;5049731;28;20645;-79
2022/05/17 04:51:42;;;;;;;15.82;6.35;;;;;;;19.90;57.83;95129.06;5032032;28;20179;-79
2022/05/17 04:54:08;;;;;;;14.60;5.82;;;;;;;20.41;55.75;95137.25;5052183;28;20175;-78
2022/05/17 04:56:34;;;;;;;19.25;5.97;;;;;;;20.93;53.83;95149.63;5041957;28;20182;-79
2022/05/17 04:59:00;;;;;;;11.85;7.03;;;;;;;21.58;52.16;95156.00;5041867;28;20175;-77
2022/05/17 05:01:26;;;;;;;21.27;6.28;;;;;;;22.01;50.98;95147.28;5044390;28;20190;-77
2022/05/17 05:03:52;;;;;;;16.05;6.28;;;;;;;22.26;49.52;95102.63;5035897;28;20167;-77
2022/05/17 05:06:17;;;;;;;22.63;6.57;;;;;;;22.99;47.14;95142.94;5043513;28;20176;-77
2022/05/17 05:08:44;;;;;;;8.82;5.68;;;;;;;23.46;46.98;95142.22;5043443;28;20865;-78
2022/05/17 05:11:09;;;;;;;23.23;6.45;;;;;;;23.88;45.50;95145.03;5050597;28;20172;-78
2022/05/17 05:13:35;;;;;;;16.20;6.63;;;;;;;24.19;43.13;95145.47;5037836;28;20790;-79
2022/05/17 05:16:00;;;;;;;10.25;5.25;;;;;;;24.60;40.12;95128.78;5032605;28;20178;-79
2022/05/17 05:18:26;;;;;;;11.35;5.85;;;;;;;25.18;39.78;95140.78;5053119;28;20166;-79
2022/05/17 05:21:02;;;;;;;13.85;5.53;;;;;;;25.80;39.11;95144.00;5053098;28;20540;-79
2022/05/17 05:23:28;;;;;;;10.85;5.78;;;;;;;26.44;38.53;95144.91;5051274;28;20163;-80
2022/05/17 05:25:59;;;;;;;12.68;5.80;;;;;;;26.76;38.37;95116.88;5051929;28;20171;-81
2022/05/17 05:28:24;;;;;;;16.75;6.50;;;;;;;27.14;35.88;95082.22;5051681;28;20199;-81
2022/05/17 05:30:49;;;;;;;18.08;6.13;;;;;;;27.91;35.04;95130.50;5039920;28;20194;-81
2022/05/17 05:33:15;;;;;;;13.43;6.18;;;;;;;28.20;34.38;95126.44;5051268;28;20232;-81
2022/05/17 05:35:40;;;;;;;11.35;5.63;;;;;;;28.46;33.46;95122.66;5051094;28;20260;-81
2022/05/17 05:38:06;;;;;;;13.27;5.72;;;;;;;28.82;33.36;95135.94;5051136;28;20190;-81
2022/05/17 05:40:31;;;;;;;16.73;5.90;;;;;;;28.95;32.17;95144.25;5036929;28;20229;-81
2022/05/17 05:42:57;;;;;;;29.63;15.45;;;;;;;28.94;32.73;95150.78;5040432;28;20179;-81
2022/05/17 05:45:22;;;;;;;14.65;7.47;;;;;;;28.62;33.38;95119.50;5032845;28;20164;-81
2022/05/17 05:47:48;;;;;;;14.30;6.18;;;;;;;28.22;32.42;95121.50;5034941;28;20283;-81
2022/05/17 05:50:13;;;;;;;15.40;5.53;;;;;;;28.10;33.38;95141.88;5049583;28;20218;-79
2022/05/17 05:52:39;;;;;;;24.63;6.03;;;;;;;28.20;34.18;95146.19;5041907;28;20176;-79
2022/05/17 05:55:06;;;;;;;12.18;6.13;;;;;;;28.43;34.94;95128.72;5051587;28;20171;-79
2022/05/17 05:57:32;;;;;;;7.78;5.88;;;;;;;28.35;33.52;95090.81;5051394;28;20205;-79
2022/05/17 05:59:58;;;;;;;9.35;4.60;;;;;;;28.43;32.83;95145.00;5051410;28;20198;-79
2022/05/17 06:02:25;;;;;;;10.35;4.40;;;;;;;27.69;33.65;95144.06;5052151;28;20175;-79
2022/05/17 06:04:50;;;;;;;21.17;5.35;;;;;;;27.17;35.86;95137.53;5044572;28;20211;-79
2022/05/17 06:07:16;;;;;;;10.10;4.43;;;;;;;27.14;35.04;95140.88;5051213;28;20686;-79
2022/05/17 06:09:42;;;;;;;8.60;4.32;;;;;;;27.35;36.43;95139.25;5051010;28;20238;-79
2022/05/17 06:12:08;;;;;;;10.15;4.60;;;;;;;27.54;35.82;95144.47;5037622;28;20263;-79
2022/05/17 06:14:33;;;;;;;11.40;5.00;;;;;;;27.63;35.54;95127.19;5043670;28;20219;-79
2022/05/17 06:16:59;;;;;;;7.70;4.28;;;;;;;27.66;34.08;95128.47;5052311;28;20175;-81
2022/05/17 06:19:25;;;;;;;7.97;5.80;;;;;;;27.79;34.11;95130.28;5050840;28;20229;-78
2022/05/17 06:21:51;;;;;;;11.73;4.25;;;;;;;27.50;36.55;95100.22;5050873;28;20666;-78
2022/05/17 06:24:17;;;;;;;9.65;3.70;;;;;;;27.61;35.70;95144.84;5050589;28;20210;-78
2022/05/17 06:26:43;;;;;;;12.30;4.43;;;;;;;27.39;36.29;95132.94;5050595;28;20286;-78
2022/05/17 06:29:08;;;;;;;7.65;3.80;;;;;;;27.52;36.47;95136.63;5050886;28;20258;-78
2022/05/17 06:31:34;;;;;;;7.57;5.57;;;;;;;27.60;35.14;95143.22;5050827;28;20253;-78
2022/05/17 06:33:59;;;;;;;9.85;5.22;;;;;;;26.89;34.06;95139.56;5050787;28;20190;-78
2022/05/17 06:36:25;;;;;;;15.70;4.18;;;;;;;26.47;36.61;95146.97;5043539;28;20188;-78
2022/05/17 06:38:51;;;;;;;8.63;4.45;;;;;;;26.56;37.66;95141.66;5043418;28;20210;-78
2022/05/17 06:41:17;;;;;;;12.63;4.18;;;;;;;26.72;36.38;95132.13;5041230;28;20257;-78
2022/05/17 06:43:43;;;;;;;8.43;4.18;;;;;;;27.01;37.13;95139.81;5041843;28;20168;-78
2022/05/17 06:46:08;;;;;;;5.40;3.60;;;;;;;27.02;36.14;95096.28;5041969;28;20180;-79
2022/05/17 06:48:34;;;;;;;9.10;3.47;;;;;;;26.72;35.03;95072.69;5042669;28;20210;-81
2022/05/17 06:51:07;;;;;;;15.13;8.25;;;;;;;26.70;35.91;95103.81;5034561;28;20183;-81
2022/05/17 06:53:33;;;;;;;18.83;4.20;;;;;;;26.77;35.64;95125.78;5014015;28;20935;-81
2022/05/17 06:55:59;;;;;;;6.85;3.58;;;;;;;26.67;36.54;95087.09;5014047;28;20255;-81
2022/05/17 06:58:28;;;;;;;7.88;3.35;;;;;;;26.92;34.55;95128.94;5031524;28;20294;-81
2022/05/17 07:00:53;;;;;;;5.57;3.92;;;;;;;27.08;36.08;95121.25;5031943;28;20167;-80
2022/05/17 07:03:19;;;;;;;8.52;3.80;;;;;;;27.06;34.67;95126.22;5036923;28;20171;-80
2022/05/17 07:05:44;;;;;;;6.75;3.55;;;;;;;26.84;36.20;95074.81;5037755;28;20175;-82
2022/05/17 07:08:10;;;;;;;7.40;3.72;;;;;;;26.88;35.90;95081.22;5040118;28;20264;-81
2022/05/17 07:13:19;;;;;;;6.60;4.00;;;;;;;27.26;39.07;95116.75;5044073;28;20750;-79
2022/05/17 07:15:47;;;;;;;9.50;4.18;;;;;;;27.52;38.11;95116.91;5047432;28;20191;-78
2022/05/17 07:18:15;;;;;;;6.78;3.95;;;;;;;27.55;37.58;95081.16;5047746;28;20184;-78
2022/05/17 07:20:42;;;;;;;6.82;3.60;;;;;;;27.93;35.93;95087.66;5025056;28;20211;-77
2022/05/17 07:23:09;;;;;;;6.72;3.45;;;;;;;28.24;34.10;95092.22;5047343;28;20265;-77
2022/05/17 07:25:35;;;;;;;6.22;4.55;;;;;;;28.05;35.34;95112.22;5050659;28;20182;-79
2022/05/17 07:28:00;;;;;;;7.53;4.53;;;;;;;27.82;34.18;95113.41;5053835;28;20198;-77
2022/05/17 07:30:27;;;;;;;11.73;4.10;;;;;;;27.51;35.18;95097.16;5046403;28;20179;-79
2022/05/17 07:32:52;;;;;;;7.05;3.67;;;;;;;27.61;35.04;95075.28;5049019;28;20171;-78
2022/05/17 07:35:18;;;;;;;8.93;3.63;;;;;;;28.03;34.92;95084.66;5046517;28;20301;-77
2022/05/17 07:37:43;;;;;;;6.50;3.80;;;;;;;28.10;35.02;95098.53;5045219;28;20176;-78
2022/05/17 07:40:12;;;;;;;10.45;3.45;;;;;;;28.20;36.27;95091.22;5052652;28;20681;-78
2022/05/17 07:42:39;;;;;;;9.52;4.47;;;;;;;28.49;33.53;95088.72;5036138;28;20269;-78
2022/05/17 07:45:05;;;;;;;12.68;4.15;;;;;;;28.50;33.05;95098.44;5054213;28;20183;-76
2022/05/17 07:47:31;;;;;;;9.15;4.53;;;;;;;28.44;37.06;95092.41;5051004;28;20199;-76
2022/05/17 07:49:56;;;;;;;12.57;5.05;;;;;;;28.73;35.66;95094.47;5053647;28;20190;-76
2022/05/17 07:52:22;;;;;;;16.23;4.38;;;;;;;28.93;36.78;95065.13;5053571;28;20268;-76
2022/05/17 07:54:47;;;;;;;13.13;4.13;;;;;;;29.22;33.79;95067.97;5053515;28;20186;-76
2022/05/17 07:57:13;;;;;;;8.45;4.25;;;;;;;29.34;34.10;95078.13;5048738;28;20182;-78
2022/05/17 07:59:38;;;;;;;14.90;5.78;;;;;;;29.40;36.00;95082.31;5046323;28;20562;-76
2022/05/17 08:02:04;;;;;;;11.40;4.68;;;;;;;28.80;34.63;95067.69;5053473;28;20206;-79
2022/05/17 08:04:30;;;;;;;8.65;4.07;;;;;;;28.48;35.06;95060.84;5054546;28;20709;-81
2022/05/17 08:06:56;;;;;;;16.08;3.90;;;;;;;28.29;35.74;95038.69;5054655;28;20279;-81
2022/05/17 08:09:23;;;;;;;8.43;3.35;;;;;;;28.48;36.21;95041.06;5036548;28;20250;-81
2022/05/17 08:11:49;;;;;;;10.55;4.35;;;;;;;28.83;35.17;95050.81;5054245;28;20258;-81
2022/05/17 08:14:15;;;;;;;12.10;4.05;;;;;;;28.86;32.70;95022.25;5054180;28;20662;-81
2022/05/17 08:16:42;;;;;;;13.75;4.10;;;;;;;29.02;32.63;95066.72;5036343;28;20254;-82
2022/05/17 08:19:11;;;;;;;11.45;4.07;;;;;;;28.95;33.96;95071.84;5036203;28;20571;-77
2022/05/17 08:21:37;;;;;;;8.60;4.50;;;;;;;28.96;32.75;95069.94;5045816;28;20211;-78
2022/05/17 08:24:03;;;;;;;14.13;4.05;;;;;;;28.76;32.46;95060.50;5043667;28;20657;-77
2022/05/17 08:29:13;;;;;;;12.75;4.85;;;;;;;28.38;34.31;95041.38;5051435;28;20190;-77
2022/05/17 08:31:39;;;;;;;9.65;4.15;;;;;;;28.08;33.62;95057.44;5052986;28;20643;-78
2022/05/17 08:34:07;;;;;;;7.03;3.50;;;;;;;27.50;33.53;95033.38;5053129;28;20193;-78
2022/05/17 08:36:33;;;;;;;4.30;2.92;;;;;;;27.77;34.07;95064.81;5034953;28;20584;-78
2022/05/17 08:38:58;;;;;;;11.27;3.75;;;;;;;28.30;35.30;95053.00;5049320;28;20179;-78
2022/05/17 08:41:50;;;;;;;8.88;3.03;;;;;;;28.77;33.90;95040.44;5040553;28;20171;-79
2022/05/17 08:44:21;;;;;;;5.75;2.90;;;;;;;28.87;33.20;95043.63;5052528;28;20179;-79
2022/05/17 08:47:09;;;;;;;9.18;3.58;;;;;;;29.32;31.98;95056.72;5052123;28;20631;-79
2022/05/17 08:49:43;;;;;;;5.22;3.20;;;;;;;29.10;30.69;95055.06;5033608;28;20178;-79
2022/05/17 08:52:16;;;;;;;4.75;3.10;;;;;;;29.11;31.73;95050.44;5051024;28;20926;-78
2022/05/17 08:54:48;;;;;;;3.83;2.65;;;;;;;29.12;33.66;95049.31;5052348;28;20654;-78
2022/05/17 08:57:32;;;;;;;20.13;10.00;;;;;;;29.39;31.46;95050.88;5027160;28;20179;-79
2022/05/17 09:00:05;;;;;;;3.65;2.40;;;;;;;29.77;28.58;95039.97;5052155;28;20210;-77
2022/05/17 09:03:05;;;;;;;4.15;2.28;;;;;;;29.92;29.45;95039.44;5034318;28;20186;-78
2022/05/17 09:05:33;;;;;;;6.75;3.00;;;;;;;28.76;29.50;95049.66;5037783;28;20191;-79
2022/05/17 09:08:16;;;;;;;5.72;2.85;;;;;;;28.49;29.73;95029.91;5052106;28;20195;-80
2022/05/17 09:10:50;;;;;;;6.18;2.58;;;;;;;28.70;34.42;95035.50;5034384;28;20179;-78
2022/05/17 09:13:23;;;;;;;7.07;2.70;;;;;;;29.10;32.94;95029.84;5052083;28;20256;-78
2022/05/17 09:15:51;;;;;;;9.45;2.47;;;;;;;29.23;32.16;94999.81;5052182;28;20593;-77
2022/05/17 09:18:18;;;;;;;4.22;2.30;;;;;;;29.53;28.11;95035.16;5052320;28;20240;-78
2022/05/17 09:20:44;;;;;;;4.43;2.53;;;;;;;29.31;29.42;95033.47;5052175;28;20187;-79
2022/05/17 09:23:10;;;;;;;4.82;2.50;;;;;;;29.01;27.49;95038.00;5046754;28;20186;-78
2022/05/17 09:26:05;;;;;;;4.82;2.05;;;;;;;28.37;28.45;95008.06;5040698;28;20180;-78
2022/05/17 09:28:48;;;;;;;5.65;2.42;;;;;;;28.23;29.55;95021.00;5033682;28;20245;-80
2022/05/17 09:31:21;;;;;;;6.07;2.60;;;;;;;27.95;30.65;95015.03;5047876;28;20613;-80
2022/05/17 09:33:48;;;;;;;3.05;2.10;;;;;;;28.13;32.03;95013.94;5052340;28;20187;-80
2022/05/17 09:36:18;;;;;;;5.88;2.20;;;;;;;28.40;32.41;95017.50;5034038;28;20569;-80
2022/05/17 09:38:46;;;;;;;11.55;2.53;;;;;;;28.49;29.89;95018.28;5033696;28;20636;-80
2022/05/17 09:41:16;;;;;;;8.65;2.78;;;;;;;28.64;30.12;95009.66;5051468;28;20167;-80
2022/05/17 09:44:05;;;;;;;3.20;1.98;;;;;;;28.76;29.78;95009.00;5051593;28;20167;-80
2022/05/17 09:46:36;;;;;;;2.78;1.75;;;;;;;28.83;29.39;94998.50;5051622;28;20535;-79
2022/05/17 09:54:48;;;;;;;3.05;2.45;;;;;;;29.04;28.83;94987.75;5041884;28;20168;-78
2022/05/17 09:57:13;;;;;;;4.38;2.17;;;;;;;28.88;27.53;94988.28;5037237;28;20171;-78
2022/05/17 09:59:39;;;;;;;4.60;2.10;;;;;;;28.82;30.09;94973.31;5033502;28;20237;-78
2022/05/17 10:02:05;;;;;;;4.07;2.10;;;;;;;28.55;26.96;94987.19;5051284;28;20175;-79
2022/05/17 10:04:30;;;;;;;4.80;2.15;;;;;;;28.37;27.97;94981.00;5051166;28;20213;-79
2022/05/17 10:06:56;;;;;;;2.55;2.03;;;;;;;28.10;26.26;94952.31;5052236;28;20203;-80
2022/05/17 10:09:34;;;;;;;2.72;1.95;;;;;;;28.00;26.71;94957.25;5052089;28;20206;-80
2022/05/17 10:12:08;;;;;;;6.35;2.00;;;;;;;28.08;27.06;94978.91;5051929;28;20189;-80
2022/05/17 10:14:40;;;;;;;5.05;2.38;;;;;;;28.11;28.90;94969.34;5028416;28;20644;-80
2022/05/17 10:17:10;;;;;;;3.50;1.63;;;;;;;28.31;33.23;94967.94;5031135;28;20196;-80
2022/05/17 10:20:04;;;;;;;2.40;2.00;;;;;;;28.35;31.28;94949.94;5028913;28;20236;-80
2022/05/17 10:23:09;;;;;;;2.30;1.85;;;;;;;27.97;27.14;94947.84;5016244;28;20945;-80
2022/05/17 10:25:50;;;;;;;3.92;2.08;;;;;;;27.83;28.62;94963.44;5010150;28;20238;-80
2022/05/17 10:28:26;;;;;;;4.63;1.83;;;;;;;27.81;31.32;94948.63;5029374;28;20775;-81
2022/05/17 10:30:59;;;;;;;2.95;2.42;;;;;;;27.89;32.50;94945.13;5026149;28;20186;-80
2022/05/17 10:33:44;;;;;;;6.72;3.70;;;;;;;27.91;31.57;94935.59;5023995;28;20187;-80
2022/05/17 10:36:43;;;;;;;3.58;1.70;;;;;;;27.26;32.82;94847.16;5027987;28;20274;-79
2022/05/17 10:39:25;;;;;;;6.60;2.28;;;;;;;27.98;31.31;94946.75;5027959;28;20650;-79
2022/05/17 10:41:51;;;;;;;6.75;1.70;;;;;;;27.93;29.98;94929.88;5027784;28;20250;-79
2022/05/17 10:44:19;;;;;;;6.57;2.05;;;;;;;27.95;32.47;94914.88;5028265;28;20187;-80
2022/05/17 10:46:55;;;;;;;3.80;2.00;;;;;;;28.10;30.71;94919.84;5024476;28;20262;-80
2022/05/17 10:49:54;;;;;;;3.00;2.33;;;;;;;28.31;32.13;94924.59;5038833;28;20190;-79
2022/05/17 10:52:44;;;;;;;3.03;2.03;;;;;;;28.40;30.19;94922.69;5023390;28;20183;-80
2022/05/17 10:55:13;;;;;;;3.13;1.88;;;;;;;28.31;29.67;94917.28;5025612;28;20202;-80
2022/05/17 10:57:58;;;;;;;11.30;3.00;;;;;;;27.99;30.13;94880.66;5025207;28;20193;-80
2022/05/17 11:00:38;;;;;;;5.93;2.15;;;;;;;28.30;31.15;94923.81;5021820;28;20192;-79
2022/05/17 11:03:48;;;;;;;6.38;2.30;;;;;;;28.33;28.61;94908.84;5027169;28;20187;-79
2022/05/17 11:06:28;;;;;;;5.53;2.00;;;;;;;28.26;32.10;94900.41;5012531;28;20195;-80
2022/05/17 11:09:12;;;;;;;2.47;1.92;;;;;;;28.26;29.13;94901.22;5028203;28;20218;-80
2022/05/17 11:11:53;;;;;;;3.30;2.75;;;;;;;28.28;31.54;94895.47;5028812;28;20190;-79
2022/05/17 11:14:31;;;;;;;29.15;17.23;;;;;;;27.99;31.38;94848.19;5043958;28;20717;-80
2022/05/17 11:17:07;;;;;;;4.32;2.53;;;;;;;28.41;31.54;94897.19;5051583;28;20186;-81
2022/05/17 11:19:38;;;;;;;14.23;9.15;;;;;;;28.42;32.24;94885.22;5051873;28;20182;-80
2022/05/17 11:22:16;;;;;;;3.63;2.40;;;;;;;28.51;32.81;94881.38;5035529;28;20183;-80
2022/05/17 11:25:09;;;;;;;3.97;2.33;;;;;;;28.57;33.20;94873.88;5034630;28;20209;-80
2022/05/17 11:27:49;;;;;;;48.17;5.18;;;;;;;28.67;30.94;94867.31;5033132;28;20596;-79
2022/05/17 11:30:20;;;;;;;8.27;2.10;;;;;;;28.46;31.69;94849.03;5053016;28;20213;-80
2022/05/17 11:33:10;;;;;;;2.03;1.83;;;;;;;28.67;31.24;94870.81;5053338;28;20273;-79
2022/05/17 11:35:49;;;;;;;5.25;2.55;;;;;;;28.70;32.65;94866.66;5053983;28;20175;-80
2022/05/17 11:38:31;;;;;;;3.90;3.10;;;;;;;28.70;32.65;94853.13;5047324;28;20190;-79
2022/05/17 11:41:03;;;;;;;3.58;2.50;;;;;;;28.82;34.07;94864.88;5052589;28;20175;-80
2022/05/17 11:43:44;;;;;;;2.72;2.20;;;;;;;28.86;31.22;94857.69;5053580;28;20220;-80
2022/05/17 11:46:28;;;;;;;2.47;1.70;;;;;;;28.92;30.51;94850.16;5034916;28;20176;-79
2022/05/17 11:49:18;;;;;;;7.45;2.75;;;;;;;28.89;32.45;94848.09;5052051;28;20566;-80